Time;durP1;ratioP1;P1;durP2;ratioP2;P2;SDS_P1;SDS_P2;PMS_P1;PMS_P2;Temp;Humidity;BMP_temperature;BMP_pressure;BME280_temperature;BME280_humidity;BME280_pressure;Samples;Min_cycle;Max_cycle;Signal;HPM_P1;HPM_P2
2022/05/14 00:02:01;;;;;;;18.30;14.35;;;25.30;99.90;;;;;;5071860;28;20028;-47
2022/05/14 00:04:27;;;;;;;17.58;14.10;;;25.30;99.90;;;;;;5071573;28;20064;-47
2022/05/14 00:06:54;;;;;;;19.48;14.57;;;25.30;99.90;;;;;;5071586;28;20025;-47
2022/05/14 00:09:20;;;;;;;17.17;14.00;;;25.30;99.90;;;;;;5071825;28;20369;-47
2022/05/14 00:14:30;;;;;;;19.02;14.88;;;25.30;99.90;;;;;;5071561;28;20047;-47
2022/05/14 00:16:56;;;;;;;19.48;15.35;;;25.30;99.90;;;;;;5071433;28;20409;-47
2022/05/14 00:19:22;;;;;;;19.33;15.30;;;25.30;99.90;;;;;;5070245;28;20060;-47
2022/05/14 00:21:48;;;;;;;22.17;15.95;;;25.30;99.90;;;;;;5071420;28;20021;-47
2022/05/14 00:24:14;;;;;;;22.30;15.80;;;25.20;99.90;;;;;;5071535;28;20081;-46
2022/05/14 00:26:40;;;;;;;19.95;15.50;;;25.30;99.90;;;;;;5071627;28;20373;-47
2022/05/14 00:29:07;;;;;;;22.00;17.20;;;25.20;99.90;;;;;;5071492;28;20056;-47
2022/05/14 00:31:33;;;;;;;21.13;16.85;;;25.30;99.90;;;;;;5071420;28;20024;-48
2022/05/14 00:33:59;;;;;;;21.83;15.90;;;25.30;99.90;;;;;;5071525;28;20028;-47
2022/05/14 00:36:25;;;;;;;20.45;16.63;;;25.30;99.90;;;;;;5070982;28;20481;-47
2022/05/14 00:38:51;;;;;;;20.33;15.88;;;25.20;99.90;;;;;;5071223;28;20028;-47
2022/05/14 00:41:17;;;;;;;20.95;15.77;;;25.20;99.90;;;;;;5071198;28;20024;-47
2022/05/14 00:43:54;;;;;;;19.80;16.33;;;25.30;99.90;;;;;;5071267;28;20032;-47
2022/05/14 00:46:25;;;;;;;23.33;16.77;;;25.30;99.90;;;;;;5071286;28;20029;-48
2022/05/14 00:48:54;;;;;;;20.55;16.15;;;25.30;99.90;;;;;;5071175;28;20040;-47
2022/05/14 00:51:26;;;;;;;21.83;17.35;;;25.30;99.90;;;;;;5071471;28;20019;-47
2022/05/14 00:53:57;;;;;;;20.27;16.40;;;25.20;99.90;;;;;;5069922;28;20020;-47
2022/05/14 00:56:30;;;;;;;22.35;18.08;;;25.20;99.90;;;;;;5071171;28;20035;-47
2022/05/14 01:01:46;;;;;;;20.83;17.10;;;25.30;99.90;;;;;;5069552;28;20135;-50
2022/05/14 01:07:02;;;;;;;20.83;16.65;;;25.30;99.90;;;;;;5071368;28;20056;-50
2022/05/14 01:09:28;;;;;;;22.05;17.05;;;25.30;99.90;;;;;;5071256;28;20475;-55
2022/05/14 01:11:55;;;;;;;20.60;17.08;;;25.30;99.90;;;;;;5070725;28;20074;-50
2022/05/14 01:14:21;;;;;;;19.42;16.30;;;25.30;99.90;;;;;;5070895;28;20024;-50
2022/05/14 01:16:47;;;;;;;22.77;18.10;;;25.20;99.90;;;;;;5070768;28;20152;-50
2022/05/14 01:19:13;;;;;;;21.52;17.15;;;25.30;99.90;;;;;;5070796;28;20487;-50
2022/05/14 01:22:00;;;;;;;23.27;19.13;;;25.20;99.90;;;;;;5070940;28;20032;-50
2022/05/14 01:27:10;;;;;;;22.70;16.95;;;25.30;99.90;;;;;;5070798;28;19912;-50
2022/05/14 01:29:38;;;;;;;20.05;16.48;;;25.30;99.90;;;;;;5070678;28;20025;-51
2022/05/14 01:37:51;;;;;;;21.38;17.38;;;25.20;99.90;;;;;;5070804;28;20070;-50
2022/05/14 01:40:17;;;;;;;21.67;16.90;;;25.30;99.90;;;;;;5070644;28;20058;-50
2022/05/14 01:42:43;;;;;;;22.20;17.10;;;25.20;99.90;;;;;;5070516;28;20040;-50
2022/05/14 01:45:09;;;;;;;20.80;17.52;;;25.30;99.90;;;;;;5070594;28;20032;-51
2022/05/14 01:47:35;;;;;;;23.27;17.17;;;25.20;99.90;;;;;;5071525;28;20052;-51
2022/05/14 01:50:01;;;;;;;21.40;16.15;;;25.20;99.90;;;;;;5073118;28;20094;-50
2022/05/14 01:52:26;;;;;;;20.23;17.10;;;25.20;99.90;;;;;;5074166;28;20036;-51
2022/05/14 01:54:52;;;;;;;19.73;16.48;;;25.20;99.90;;;;;;5074056;28;20024;-51
2022/05/14 01:57:18;;;;;;;21.30;17.33;;;25.20;99.90;;;;;;5074097;28;20453;-51
2022/05/14 01:59:44;;;;;;;21.30;16.40;;;25.20;99.90;;;;;;5082855;22;20496;-47
2022/05/14 02:02:10;;;;;;;19.17;16.08;;;25.30;99.90;;;;;;5053974;28;20426;-47
2022/05/14 02:04:36;;;;;;;21.58;15.48;;;25.20;99.90;;;;;;5053941;28;20032;-47
2022/05/14 02:07:02;;;;;;;20.40;15.93;;;25.20;99.90;;;;;;5054262;28;20365;-47
2022/05/14 02:09:30;;;;;;;20.50;16.23;;;25.20;99.90;;;;;;5053862;28;20094;-48
2022/05/14 02:11:55;;;;;;;19.25;15.23;;;25.20;99.90;;;;;;5053882;28;20101;-47
2022/05/14 02:14:21;;;;;;;19.40;14.93;;;25.20;99.90;;;;;;5053858;28;20116;-47
2022/05/14 02:16:47;;;;;;;19.27;15.52;;;25.20;99.90;;;;;;5053859;28;20387;-47
2022/05/14 02:19:13;;;;;;;18.50;15.52;;;25.20;99.90;;;;;;5053790;28;20029;-47
2022/05/14 02:21:38;;;;;;;17.55;14.82;;;25.20;99.90;;;;;;5053646;28;20373;-47
2022/05/14 02:24:05;;;;;;;18.73;15.13;;;25.20;99.90;;;;;;5053836;28;20058;-47
2022/05/14 02:26:31;;;;;;;19.00;15.38;;;25.20;99.90;;;;;;5053804;28;20017;-47
2022/05/14 02:28:57;;;;;;;19.55;15.60;;;25.30;99.90;;;;;;5053592;28;20036;-47
2022/05/14 02:31:23;;;;;;;18.30;14.48;;;25.20;99.90;;;;;;5053505;28;20397;-47
2022/05/14 02:33:49;;;;;;;18.08;14.52;;;25.30;99.90;;;;;;5053602;28;20579;-47
2022/05/14 02:36:14;;;;;;;18.67;14.63;;;25.20;99.90;;;;;;5053483;28;20096;-47
2022/05/14 02:38:40;;;;;;;18.10;14.55;;;25.20;99.90;;;;;;5053487;28;20029;-47
2022/05/14 02:41:08;;;;;;;17.75;14.55;;;25.20;99.90;;;;;;5053315;28;20487;-47
2022/05/14 02:43:34;;;;;;;;;;;25.20;99.90;;;;;;5053798;28;20059;-47
2022/05/14 02:46:01;;;;;;;16.27;13.98;;;25.20;99.90;;;;;;5053394;28;19908;-47
2022/05/14 02:48:27;;;;;;;18.58;15.02;;;25.20;99.90;;;;;;5053195;28;20029;-47
2022/05/14 02:50:52;;;;;;;18.50;14.82;;;25.20;99.90;;;;;;5053187;28;20029;-47
2022/05/14 02:53:18;;;;;;;16.85;14.45;;;25.20;99.90;;;;;;5053083;28;20025;-47
2022/05/14 02:55:44;;;;;;;16.77;14.13;;;25.20;99.90;;;;;;5053085;28;20052;-47
2022/05/14 02:58:10;;;;;;;16.95;14.20;;;25.20;99.90;;;;;;5052561;28;20082;-47
2022/05/14 03:00:36;;;;;;;17.88;13.70;;;25.20;99.90;;;;;;5053504;28;20120;-46
2022/05/14 03:03:02;;;;;;;16.58;13.95;;;25.20;99.90;;;;;;5053056;28;20044;-47
2022/05/14 03:05:28;;;;;;;15.82;13.32;;;25.20;99.90;;;;;;5052802;28;20033;-47
2022/05/14 03:07:54;;;;;;;15.65;12.73;;;25.20;99.90;;;;;;5052746;28;20024;-47
2022/05/14 03:10:20;;;;;;;14.85;13.00;;;25.20;99.90;;;;;;5052917;28;20468;-47
2022/05/14 03:12:46;;;;;;;15.73;13.45;;;25.20;99.90;;;;;;5052717;28;20603;-47
2022/05/14 03:15:13;;;;;;;16.48;13.65;;;25.20;99.90;;;;;;5052685;28;20024;-47
2022/05/14 03:17:39;;;;;;;16.23;13.43;;;25.20;99.90;;;;;;5052700;28;20029;-47
2022/05/14 03:20:07;;;;;;;16.17;13.05;;;25.20;99.90;;;;;;5052854;28;20028;-47
2022/05/14 03:22:38;;;;;;;15.32;12.90;;;25.20;99.90;;;;;;5052607;28;20024;-47
2022/05/14 03:25:05;;;;;;;16.88;13.02;;;25.20;99.90;;;;;;5052776;28;20021;-46
2022/05/14 03:27:31;;;;;;;14.25;12.32;;;25.20;99.90;;;;;;5052758;28;20151;-47
2022/05/14 03:29:57;;;;;;;16.92;13.93;;;25.20;99.90;;;;;;5052326;28;20111;-47
2022/05/14 03:32:24;;;;;;;14.77;12.13;;;25.20;99.90;;;;;;5052305;28;20031;-46
2022/05/14 03:34:50;;;;;;;15.43;12.20;;;25.20;99.90;;;;;;5052353;28;20159;-47
2022/05/14 03:37:16;;;;;;;14.30;11.90;;;25.10;99.90;;;;;;5052410;28;20290;-46
2022/05/14 03:39:42;;;;;;;16.15;12.60;;;25.20;99.90;;;;;;5052457;28;20110;-47
2022/05/14 03:42:08;;;;;;;16.30;13.20;;;25.10;99.90;;;;;;5052394;28;20139;-46
2022/05/14 03:44:33;;;;;;;15.43;12.27;;;25.20;99.90;;;;;;5052222;28;20530;-46
2022/05/14 03:46:59;;;;;;;15.48;13.60;;;25.20;99.90;;;;;;5052208;28;20033;-47
2022/05/14 03:49:25;;;;;;;15.88;12.48;;;25.20;99.90;;;;;;5052044;28;20376;-46
2022/05/14 03:51:52;;;;;;;13.50;11.98;;;25.10;99.90;;;;;;5051909;28;20021;-47
2022/05/14 03:54:18;;;;;;;16.13;12.88;;;25.20;99.90;;;;;;5051841;28;20025;-47
2022/05/14 03:56:44;;;;;;;14.45;12.27;;;25.10;99.90;;;;;;5051902;28;20063;-46
2022/05/14 03:59:10;;;;;;;15.52;13.50;;;25.10;99.90;;;;;;5052533;28;20079;-46
2022/05/14 04:01:36;;;;;;;16.17;12.93;;;25.10;99.90;;;;;;5052404;28;20052;-47
2022/05/14 04:04:02;;;;;;;15.18;12.60;;;25.10;99.90;;;;;;5051698;28;20033;-47
2022/05/14 04:06:28;;;;;;;14.40;12.38;;;25.10;99.90;;;;;;5051793;28;20075;-47
2022/05/14 04:08:54;;;;;;;16.50;13.10;;;25.10;99.90;;;;;;5051709;28;20033;-46
2022/05/14 04:11:20;;;;;;;15.93;12.73;;;25.20;99.90;;;;;;5050910;28;20053;-46
2022/05/14 04:13:46;;;;;;;15.80;12.68;;;25.10;99.90;;;;;;5050482;28;20032;-46
2022/05/14 04:16:12;;;;;;;14.95;11.90;;;25.10;99.90;;;;;;5051471;28;20377;-46
2022/05/14 04:18:38;;;;;;;14.52;12.13;;;25.10;99.90;;;;;;5051750;28;20127;-46
2022/05/14 04:21:04;;;;;;;16.23;11.65;;;25.10;99.90;;;;;;5051571;28;20056;-46
2022/05/14 04:23:31;;;;;;;14.02;11.80;;;25.10;99.90;;;;;;5051433;28;20041;-46
2022/05/14 04:25:59;;;;;;;14.18;11.73;;;25.10;99.90;;;;;;5051509;28;20052;-46
2022/05/14 04:28:25;;;;;;;;;;;25.10;99.90;;;;;;5051774;28;20087;-47
2022/05/14 04:30:52;;;;;;;14.73;12.02;;;25.10;99.90;;;;;;5051330;28;20256;-47
2022/05/14 04:33:19;;;;;;;15.10;12.35;;;25.10;99.90;;;;;;5051323;28;20025;-47
2022/05/14 04:35:45;;;;;;;15.60;11.88;;;25.10;99.90;;;;;;5051477;28;20401;-47
2022/05/14 04:38:12;;;;;;;15.27;11.87;;;25.10;99.90;;;;;;5051511;28;20035;-47
2022/05/14 04:40:38;;;;;;;16.10;11.90;;;25.10;99.90;;;;;;5051496;28;20029;-47
2022/05/14 04:43:09;;;;;;;14.60;11.98;;;25.10;99.90;;;;;;5051152;28;20037;-47
2022/05/14 04:45:36;;;;;;;14.27;12.45;;;25.10;99.90;;;;;;5051379;28;20021;-47
2022/05/14 04:48:02;;;;;;;15.82;11.70;;;25.10;99.90;;;;;;5051014;28;20025;-47
2022/05/14 04:50:28;;;;;;;16.77;11.98;;;25.10;99.90;;;;;;5051102;28;20023;-47
2022/05/14 04:52:54;;;;;;;13.63;11.35;;;25.10;99.90;;;;;;5051116;28;20103;-47
2022/05/14 04:55:20;;;;;;;13.80;11.27;;;25.00;99.90;;;;;;5051107;28;20032;-47
2022/05/14 04:57:45;;;;;;;14.52;12.45;;;25.10;99.90;;;;;;5051061;28;20126;-47
2022/05/14 05:00:14;;;;;;;14.70;11.88;;;25.10;99.90;;;;;;5051018;28;20049;-47
2022/05/14 05:05:26;;;;;;;14.90;11.80;;;25.10;99.90;;;;;;5051291;28;20111;-47
2022/05/14 05:07:52;;;;;;;16.17;12.63;;;25.10;99.90;;;;;;5051185;28;20025;-47
2022/05/14 05:10:18;;;;;;;12.98;10.93;;;25.00;99.90;;;;;;5049734;28;20021;-47
2022/05/14 05:12:44;;;;;;;16.60;12.75;;;25.00;99.90;;;;;;5051003;28;20021;-46
2022/05/14 05:15:10;;;;;;;16.73;12.40;;;25.00;99.90;;;;;;5051077;28;20021;-47
2022/05/14 05:17:36;;;;;;;15.77;12.02;;;25.00;99.90;;;;;;5051011;28;20021;-47
2022/05/14 05:20:03;;;;;;;15.65;12.48;;;25.00;99.90;;;;;;5050859;28;20365;-47
2022/05/14 05:22:29;;;;;;;13.35;11.75;;;25.00;99.90;;;;;;5053486;28;20029;-47
2022/05/14 05:24:56;;;;;;;14.45;11.70;;;25.00;99.90;;;;;;5054861;28;20059;-47
2022/05/14 05:27:23;;;;;;;14.80;11.90;;;25.00;99.90;;;;;;5054762;28;20514;-47
2022/05/14 05:29:48;;;;;;;14.75;12.05;;;25.00;99.90;;;;;;5054661;28;20124;-47
2022/05/14 05:32:15;;;;;;;14.30;11.98;;;25.00;99.90;;;;;;5054679;28;20119;-47
2022/05/14 05:34:41;;;;;;;13.48;11.30;;;25.00;99.90;;;;;;5054921;28;20379;-47
2022/05/14 05:37:07;;;;;;;13.35;10.98;;;25.00;99.90;;;;;;5054683;28;20147;-47
2022/05/14 05:39:32;;;;;;;14.77;11.98;;;25.00;99.90;;;;;;5054522;28;20065;-47
2022/05/14 05:41:58;;;;;;;14.20;12.07;;;25.00;99.90;;;;;;5054556;28;20021;-47
2022/05/14 05:44:26;;;;;;;14.98;11.93;;;25.00;99.90;;;;;;5054499;28;20025;-47
2022/05/14 05:46:52;;;;;;;15.30;12.45;;;25.00;99.90;;;;;;5054549;28;20073;-47
2022/05/14 05:49:18;;;;;;;12.02;10.48;;;25.00;99.90;;;;;;5054367;28;20029;-47
2022/05/14 05:51:44;;;;;;;15.85;12.68;;;25.00;99.90;;;;;;5054604;28;20044;-47
2022/05/14 05:56:57;;;;;;;14.73;12.63;;;25.00;99.90;;;;;;5054509;28;20114;-47
2022/05/14 05:59:26;;;;;;;17.55;12.68;;;25.00;99.90;;;;;;5053864;28;20053;-47
2022/05/14 06:01:52;;;;;;;14.45;11.73;;;25.00;99.90;;;;;;5054112;28;20029;-47
2022/05/14 06:04:19;;;;;;;15.48;12.10;;;25.00;99.90;;;;;;5054004;28;20388;-47
2022/05/14 06:06:45;;;;;;;15.60;12.32;;;25.00;99.90;;;;;;5054246;28;20021;-47
2022/05/14 06:09:13;;;;;;;16.33;12.20;;;25.00;99.90;;;;;;5054230;28;20032;-47
2022/05/14 06:11:41;;;;;;;15.20;12.02;;;25.00;99.90;;;;;;5054206;28;20025;-47
2022/05/14 06:14:07;;;;;;;14.73;12.43;;;25.00;99.90;;;;;;5053884;28;20104;-47
2022/05/14 06:16:33;;;;;;;14.10;11.52;;;25.00;99.90;;;;;;5053836;28;20021;-47
2022/05/14 06:18:59;;;;;;;14.85;11.98;;;25.00;99.90;;;;;;5053810;28;20029;-47
2022/05/14 06:21:27;;;;;;;15.10;11.82;;;25.10;99.90;;;;;;5053760;28;20025;-47
2022/05/14 06:23:54;;;;;;;14.98;11.23;;;25.10;99.90;;;;;;5053777;28;20121;-47
2022/05/14 06:26:20;;;;;;;16.13;12.23;;;25.10;99.90;;;;;;5053699;28;20136;-47
2022/05/14 06:28:45;;;;;;;14.68;12.00;;;25.10;99.90;;;;;;5053707;28;20116;-47
2022/05/14 06:31:11;;;;;;;14.27;11.77;;;25.10;99.90;;;;;;5053705;28;20090;-47
2022/05/14 06:33:37;;;;;;;16.67;11.80;;;25.10;99.90;;;;;;5052737;28;20044;-47
2022/05/14 06:36:03;;;;;;;15.38;12.00;;;25.10;99.90;;;;;;5053496;28;20373;-47
2022/05/14 06:38:29;;;;;;;14.25;11.93;;;25.10;99.90;;;;;;5053491;28;20029;-47
2022/05/14 06:40:55;;;;;;;15.38;11.77;;;25.10;99.90;;;;;;5053335;28;20032;-47
2022/05/14 06:43:21;;;;;;;15.05;12.13;;;25.10;99.90;;;;;;5053157;28;20142;-47
2022/05/14 06:45:47;;;;;;;15.82;12.30;;;25.10;99.90;;;;;;5053733;28;20027;-47
2022/05/14 06:48:13;;;;;;;15.15;12.05;;;25.10;99.90;;;;;;5053443;28;20025;-47
2022/05/14 06:50:48;;;;;;;16.48;12.60;;;25.10;99.90;;;;;;5053202;28;20374;-47
2022/05/14 06:53:15;;;;;;;15.45;12.20;;;25.10;99.90;;;;;;5053355;28;20024;-47
2022/05/14 06:55:44;;;;;;;18.08;12.77;;;25.10;99.90;;;;;;5053203;28;20028;-47
2022/05/14 06:58:16;;;;;;;14.55;11.57;;;25.10;99.90;;;;;;5053009;28;20032;-47
2022/05/14 07:00:43;;;;;;;16.02;12.95;;;25.20;99.90;;;;;;5051532;28;20080;-47
2022/05/14 07:08:38;;;;;;;16.65;12.15;;;25.20;99.90;;;;;;5052678;28;20028;-47
2022/05/14 07:11:04;;;;;;;13.90;11.15;;;25.20;99.90;;;;;;5052819;28;20029;-47
2022/05/14 07:13:30;;;;;;;16.10;11.90;;;25.20;99.90;;;;;;5052986;28;20025;-47
2022/05/14 07:15:56;;;;;;;13.60;11.63;;;25.20;99.90;;;;;;5052706;28;20028;-47
2022/05/14 07:18:21;;;;;;;15.85;12.00;;;25.20;99.90;;;;;;5052712;28;20027;-47
2022/05/14 07:20:47;;;;;;;15.35;11.75;;;25.20;99.90;;;;;;5052721;28;20013;-47
2022/05/14 07:23:13;;;;;;;13.60;11.88;;;25.20;99.90;;;;;;5052412;28;20464;-47
2022/05/14 07:25:39;;;;;;;12.85;11.10;;;25.20;99.90;;;;;;5052601;28;20047;-47
2022/05/14 07:28:08;;;;;;;15.05;11.50;;;25.20;99.90;;;;;;5052704;28;20427;-47
2022/05/14 07:30:34;;;;;;;14.20;11.55;;;25.20;99.90;;;;;;5052283;28;20021;-47
2022/05/14 07:33:00;;;;;;;15.55;11.50;;;25.20;99.90;;;;;;5052389;28;20070;-47
2022/05/14 07:35:27;;;;;;;13.93;11.25;;;25.20;99.90;;;;;;5052358;28;20025;-47
2022/05/14 07:37:56;;;;;;;13.98;11.27;;;25.20;99.90;;;;;;5052271;28;20025;-47
2022/05/14 07:40:26;;;;;;;13.43;10.98;;;25.20;99.90;;;;;;5052204;28;20036;-47
2022/05/14 07:43:21;;;;;;;14.45;11.45;;;25.20;99.90;;;;;;5052011;28;20044;-47
2022/05/14 07:45:55;;;;;;;13.80;10.70;;;25.20;99.90;;;;;;5049650;28;20102;-47
2022/05/14 07:48:27;;;;;;;12.25;10.05;;;25.20;99.90;;;;;;5052218;28;20488;-47
2022/05/14 07:50:53;;;;;;;13.60;10.82;;;25.20;99.90;;;;;;5052092;28;20036;-47
2022/05/14 07:53:20;;;;;;;13.13;10.75;;;25.20;99.90;;;;;;5052180;28;20036;-47
2022/05/14 07:55:47;;;;;;;12.95;10.73;;;25.20;99.90;;;;;;5051993;28;20104;-47
2022/05/14 07:58:13;;;;;;;12.63;9.93;;;25.20;99.90;;;;;;5051887;28;20029;-47
2022/05/14 08:00:39;;;;;;;12.60;10.38;;;25.30;99.90;;;;;;5050061;28;20405;-47
2022/05/14 08:03:06;;;;;;;15.35;10.77;;;25.30;99.90;;;;;;5051711;28;20044;-47
2022/05/14 08:05:32;;;;;;;12.88;10.32;;;25.30;99.90;;;;;;5051766;28;20024;-48
2022/05/14 08:07:57;;;;;;;12.25;10.27;;;25.30;99.90;;;;;;5051756;28;20358;-48
2022/05/14 08:10:23;;;;;;;11.48;8.77;;;25.30;99.90;;;;;;5051675;28;20485;-48
2022/05/14 08:12:53;;;;;;;16.98;9.63;;;25.30;99.90;;;;;;5051781;28;20103;-48
2022/05/14 08:15:21;;;;;;;10.48;8.05;;;25.30;99.90;;;;;;5051612;28;20017;-48
2022/05/14 08:17:48;;;;;;;16.80;8.32;;;25.30;99.90;;;;;;5051632;28;20048;-48
2022/05/14 08:20:15;;;;;;;12.45;6.50;;;25.30;99.90;;;;;;5051546;28;20485;-48
2022/05/14 08:25:27;;;;;;;14.60;6.45;;;25.30;99.90;;;;;;5051632;28;20396;-48
2022/05/14 08:27:53;;;;;;;12.55;6.57;;;25.20;99.90;;;;;;5051444;28;20021;-46
2022/05/14 08:30:34;;;;;;;8.48;5.03;;;25.20;99.90;;;;;;5050225;28;20389;-47
2022/05/14 08:33:00;;;;;;;18.88;5.68;;;25.20;99.90;;;;;;5051253;28;20029;-47
2022/05/14 08:35:27;;;;;;;7.07;4.63;;;25.20;99.90;;;;;;5051324;28;20104;-47
2022/05/14 08:37:55;;;;;;;12.60;5.38;;;25.20;99.90;;;;;;5051479;28;20029;-47
2022/05/14 08:40:25;;;;;;;14.35;4.70;;;25.20;99.90;;;;;;5051676;28;20547;-47
2022/05/14 08:42:54;;;;;;;12.90;4.88;;;25.10;99.90;;;;;;5051330;28;20090;-48
2022/05/14 08:45:22;;;;;;;17.15;5.28;;;25.10;99.90;;;;;;5051413;28;20459;-49
2022/05/14 08:47:56;;;;;;;10.75;5.78;;;25.20;99.90;;;;;;5051229;28;20531;-48
2022/05/14 08:50:30;;;;;;;11.90;5.15;;;25.10;99.90;;;;;;5051187;28;20049;-48
2022/05/14 08:53:00;;;;;;;8.55;5.10;;;25.10;99.90;;;;;;5051027;28;20021;-48
2022/05/14 08:55:39;;;;;;;10.43;4.57;;;25.10;99.90;;;;;;5051085;28;20074;-48
2022/05/14 08:58:27;;;;;;;12.20;4.85;;;25.20;99.90;;;;;;5050690;28;20373;-47
2022/05/14 09:00:57;;;;;;;14.90;4.22;;;25.20;99.90;;;;;;5050991;28;20099;-47
2022/05/14 09:03:23;;;;;;;12.82;4.45;;;25.20;99.90;;;;;;5050945;28;20040;-47
2022/05/14 09:05:55;;;;;;;10.25;5.00;;;25.20;99.90;;;;;;5050996;28;20079;-47
2022/05/14 09:08:21;;;;;;;7.30;4.15;;;25.20;99.90;;;;;;5051190;28;20464;-47
2022/05/14 09:11:00;;;;;;;7.95;4.05;;;25.20;99.90;;;;;;5050918;28;20036;-46
2022/05/14 09:13:27;;;;;;;11.00;4.32;;;25.20;99.90;;;;;;5050885;28;20030;-46
2022/05/14 09:15:57;;;;;;;11.75;4.32;;;25.20;99.90;;;;;;5051068;28;20028;-46
2022/05/14 09:18:25;;;;;;;9.35;4.63;;;25.30;99.90;;;;;;5050970;28;20104;-47
2022/05/14 09:20:59;;;;;;;9.27;4.63;;;25.30;99.90;;;;;;5050841;28;20048;-47
2022/05/14 09:23:33;;;;;;;11.15;3.80;;;25.30;99.90;;;;;;5050659;28;20044;-47
2022/05/14 09:26:14;;;;;;;11.02;4.07;;;25.30;99.90;;;;;;5050550;28;20022;-47
2022/05/14 09:28:46;;;;;;;8.77;3.90;;;25.30;99.90;;;;;;5050311;28;20035;-47
2022/05/14 09:31:23;;;;;;;10.60;3.40;;;25.30;99.90;;;;;;5050812;28;20047;-47
2022/05/14 09:33:58;;;;;;;12.60;4.25;;;25.40;99.90;;;;;;5050791;28;20434;-47
2022/05/14 09:36:28;;;;;;;8.77;3.47;;;25.40;99.90;;;;;;5050848;28;20465;-47
2022/05/14 09:39:07;;;;;;;7.95;3.53;;;25.40;99.90;;;;;;5050694;28;20037;-47
2022/05/14 09:42:04;;;;;;;12.52;3.78;;;25.40;99.90;;;;;;5050491;28;20025;-47
2022/05/14 09:44:44;;;;;;;13.38;3.92;;;25.40;99.90;;;;;;5049611;28;20357;-47
2022/05/14 09:47:28;;;;;;;11.88;3.53;;;25.40;99.90;;;;;;5050619;28;20029;-47
2022/05/14 09:49:59;;;;;;;7.38;3.90;;;25.40;99.90;;;;;;5050425;28;20032;-47
2022/05/14 09:52:29;;;;;;;7.82;4.05;;;25.40;99.90;;;;;;5050721;28;20025;-47
2022/05/14 09:54:57;;;;;;;7.50;3.20;;;25.50;99.90;;;;;;5050723;28;20024;-47
2022/05/14 09:57:31;;;;;;;10.82;4.60;;;25.40;99.90;;;;;;5050513;28;20025;-47
2022/05/14 10:00:06;;;;;;;10.75;3.97;;;25.50;99.90;;;;;;5050447;28;20485;-47
2022/05/14 10:02:44;;;;;;;7.15;3.85;;;25.50;99.90;;;;;;5050328;28;20537;-47
2022/05/14 10:05:34;;;;;;;10.10;3.78;;;25.50;99.90;;;;;;5050241;28;20104;-47
2022/05/14 10:08:23;;;;;;;11.80;4.05;;;25.50;99.90;;;;;;5050575;28;20100;-47
2022/05/14 10:10:59;;;;;;;10.10;4.30;;;25.40;99.90;;;;;;5053661;28;20036;-46
2022/05/14 10:13:49;;;;;;;9.20;4.28;;;25.40;99.90;;;;;;5054176;28;20059;-47
2022/05/14 10:16:36;;;;;;;13.48;4.30;;;25.40;99.90;;;;;;5053588;28;20362;-47
2022/05/14 10:19:13;;;;;;;9.35;4.20;;;25.40;99.90;;;;;;5053476;28;20025;-47
2022/05/14 10:22:00;;;;;;;8.60;4.05;;;25.40;99.90;;;;;;5053825;28;20040;-47
2022/05/14 10:28:00;;;;;;;8.48;4.10;;;25.40;99.90;;;;;;5053523;28;20028;-48
2022/05/14 10:30:47;;;;;;;8.85;4.32;;;25.40;99.90;;;;;;5053863;28;20032;-47
2022/05/14 10:33:18;;;;;;;10.15;4.55;;;25.40;99.90;;;;;;5053440;28;20025;-47
2022/05/14 10:36:10;;;;;;;9.73;4.50;;;25.50;99.90;;;;;;5053516;28;20389;-47
2022/05/14 10:38:48;;;;;;;13.48;4.68;;;25.40;99.90;;;;;;5046366;28;20435;-47
2022/05/14 10:41:31;;;;;;;11.00;4.90;;;25.50;99.90;;;;;;5053260;28;20429;-48
2022/05/14 10:44:04;;;;;;;10.55;4.25;;;25.50;99.90;;;;;;5053263;28;20029;-47
2022/05/14 10:46:34;;;;;;;7.75;4.20;;;25.50;99.90;;;;;;5053478;28;20051;-48
2022/05/14 10:49:05;;;;;;;13.73;4.78;;;25.50;99.90;;;;;;5053180;28;20060;-48
2022/05/14 10:51:37;;;;;;;12.63;4.60;;;25.60;99.90;;;;;;5053186;28;20135;-48
2022/05/14 10:54:03;;;;;;;18.50;5.93;;;25.60;99.90;;;;;;5053081;28;20377;-48
2022/05/14 10:56:36;;;;;;;10.53;4.83;;;25.60;99.90;;;;;;5053346;28;20071;-48
2022/05/14 10:59:11;;;;;;;10.77;5.38;;;25.60;99.90;;;;;;5053109;28;20268;-48
2022/05/14 11:01:43;;;;;;;11.90;5.95;;;25.60;99.90;;;;;;5052848;28;20496;-48
2022/05/14 11:04:09;;;;;;;15.10;6.72;;;25.50;99.90;;;;;;5052830;28;20487;-47
2022/05/14 11:06:56;;;;;;;10.18;5.70;;;25.50;99.90;;;;;;5052721;28;20103;-47
2022/05/14 11:09:38;;;;;;;12.57;5.32;;;25.50;99.90;;;;;;5052791;28;20032;-47
2022/05/14 11:12:30;;;;;;;8.85;4.55;;;25.50;99.90;;;;;;5052803;28;20370;-48
2022/05/14 11:14:58;;;;;;;10.55;5.43;;;25.50;99.90;;;;;;5052622;28;20036;-47
2022/05/14 11:17:30;;;;;;;8.98;4.90;;;25.60;99.90;;;;;;5052677;28;20025;-47
2022/05/14 11:20:04;;;;;;;13.40;5.45;;;25.50;99.90;;;;;;5052307;28;20421;-48
2022/05/14 11:22:35;;;;;;;13.40;5.60;;;25.40;99.90;;;;;;5052944;28;20484;-47
2022/05/14 11:25:24;;;;;;;11.95;5.88;;;25.50;99.90;;;;;;5052941;28;20040;-48
2022/05/14 11:28:09;;;;;;;13.45;5.43;;;25.50;99.90;;;;;;5052573;28;20029;-47
2022/05/14 11:30:43;;;;;;;9.15;5.00;;;25.50;99.90;;;;;;5052455;28;20052;-47
2022/05/14 11:33:31;;;;;;;14.77;5.63;;;25.50;99.90;;;;;;5051225;28;20056;-47
2022/05/14 11:36:04;;;;;;;12.70;5.05;;;25.50;99.90;;;;;;5052392;28;20021;-47
2022/05/14 11:38:32;;;;;;;14.20;5.65;;;25.50;99.90;;;;;;5052645;28;20162;-47
2022/05/14 11:41:10;;;;;;;11.65;5.00;;;25.60;99.90;;;;;;5052310;28;20028;-48
2022/05/14 11:43:43;;;;;;;10.95;5.50;;;25.50;99.90;;;;;;5051797;28;20389;-47
2022/05/14 11:46:09;;;;;;;13.02;5.68;;;25.50;99.90;;;;;;5052242;28;20078;-48
2022/05/14 11:48:44;;;;;;;10.15;5.50;;;25.50;99.90;;;;;;5052052;28;20017;-48
2022/05/14 11:51:50;;;;;;;9.60;5.00;;;25.50;99.90;;;;;;5052121;28;20029;-47
2022/05/14 11:54:29;;;;;;;10.38;5.55;;;25.60;99.90;;;;;;5052053;28;20472;-48
2022/05/14 11:57:17;;;;;;;9.02;5.13;;;25.50;99.90;;;;;;5051974;28;20036;-47
2022/05/14 12:00:06;;;;;;;15.18;5.28;;;25.50;99.90;;;;;;5051795;28;20025;-47
2022/05/14 12:02:38;;;;;;;10.18;5.03;;;25.50;99.90;;;;;;5052114;28;20028;-47
2022/05/14 12:05:07;;;;;;;11.57;5.80;;;25.50;99.90;;;;;;5052122;28;20028;-47
2022/05/14 12:07:47;;;;;;;9.20;4.85;;;25.50;99.90;;;;;;5051897;28;20025;-47
2022/05/14 12:10:36;;;;;;;12.55;6.53;;;25.50;99.90;;;;;;5051792;28;20472;-47
2022/05/14 12:13:11;;;;;;;17.92;7.13;;;25.50;99.90;;;;;;5051888;28;20524;-47
2022/05/14 12:15:57;;;;;;;13.50;5.85;;;25.50;99.90;;;;;;5051618;28;20029;-47
2022/05/14 12:18:24;;;;;;;10.18;6.80;;;25.40;99.90;;;;;;5051551;28;20017;-47
2022/05/14 12:21:03;;;;;;;13.55;7.43;;;25.30;99.90;;;;;;5051479;28;20029;-47
2022/05/14 12:23:43;;;;;;;13.45;6.80;;;25.30;99.90;;;;;;5051437;28;20037;-47
2022/05/14 12:26:20;;;;;;;13.85;7.38;;;25.30;99.90;;;;;;5051467;28;20070;-47
2022/05/14 12:28:47;;;;;;;;;;;25.30;99.90;;;;;;5051939;28;20040;-47
2022/05/14 12:34:01;;;;;;;20.17;7.90;;;25.30;99.90;;;;;;5051516;28;20031;-47
2022/05/14 12:36:32;;;;;;;12.75;6.07;;;25.30;99.90;;;;;;5051276;28;20033;-47
2022/05/14 12:38:59;;;;;;;12.75;6.53;;;25.30;99.90;;;;;;5051267;28;20052;-48
2022/05/14 12:41:31;;;;;;;19.53;7.40;;;25.30;99.90;;;;;;5051123;28;20025;-48
2022/05/14 12:43:58;;;;;;;10.80;6.47;;;25.20;99.90;;;;;;5051176;28;20040;-48
2022/05/14 12:46:24;;;;;;;12.70;6.75;;;25.20;99.90;;;;;;5051122;28;20549;-48
2022/05/14 12:48:55;;;;;;;13.70;7.60;;;25.20;99.90;;;;;;5051179;28;20032;-48
2022/05/14 12:51:23;;;;;;;11.98;7.22;;;25.20;99.90;;;;;;5051056;28;20029;-48
2022/05/14 12:53:50;;;;;;;17.13;7.80;;;25.20;99.90;;;;;;5051182;28;20035;-48
2022/05/14 12:56:18;;;;;;;13.70;6.90;;;25.30;99.90;;;;;;5051239;28;20013;-48
2022/05/14 12:58:46;;;;;;;15.23;7.45;;;25.30;99.90;;;;;;5051107;28;20492;-48
2022/05/14 13:01:13;;;;;;;12.65;7.40;;;25.30;99.90;;;;;;5050996;28;20053;-49
2022/05/14 13:03:41;;;;;;;13.47;7.33;;;25.30;99.90;;;;;;5051095;28;20429;-48
2022/05/14 13:06:12;;;;;;;12.75;7.28;;;25.30;99.90;;;;;;5049920;28;20294;-47
2022/05/14 13:08:49;;;;;;;16.30;7.13;;;25.30;99.90;;;;;;5051278;28;20017;-47
2022/05/14 13:11:18;;;;;;;15.18;7.85;;;25.40;99.90;;;;;;5051056;28;20024;-47
2022/05/14 13:13:51;;;;;;;16.83;10.07;;;25.30;99.90;;;;;;5050923;28;20026;-47
2022/05/14 13:16:23;;;;;;;19.38;7.45;;;25.30;99.90;;;;;;5050924;28;20099;-47
2022/05/14 13:18:57;;;;;;;15.15;8.48;;;25.30;99.90;;;;;;5051068;28;20051;-47
2022/05/14 13:21:29;;;;;;;15.93;9.23;;;25.30;99.90;;;;;;5049732;28;20024;-47
2022/05/14 13:24:02;;;;;;;12.50;7.65;;;25.30;99.90;;;;;;5050689;28;20550;-48